This is the latest recevied weather packets stored in our database for station/object OE6ACM-14. If no packets are shown the sender has not sent any weather packets the latest 10 day(s).
| Time | Temp. | Humidity | Pressure | Rain* | Wind** | Luminosity | Snow |
|---|---|---|---|---|---|---|---|
| 1787968313 | 17.22° C | 47% | 928.5 hPa | - | - | - | - |
| 1787968013 | 17.78° C | 47% | 928.3 hPa | - | - | - | - |
| 1787967713 | 17.22° C | 47% | 928.4 hPa | - | - | - | - |
| 1787967413 | 17.22° C | 49% | 928.6 hPa | - | - | - | - |
| 1787967113 | 17.22° C | 50% | 928.5 hPa | - | - | - | - |
| 1787966813 | 17.22° C | 50% | 928.6 hPa | - | - | - | - |
| 1787966513 | 17.22° C | 51% | 928.6 hPa | - | - | - | - |
| 1787966213 | 17.22° C | 52% | 928.7 hPa | - | - | - | - |
| 1787965913 | 16.67° C | 53% | 928.4 hPa | - | - | - | - |
| 1787965613 | 16.67° C | 54% | 928.3 hPa | - | - | - | - |
| 1787965313 | 16.67° C | 54% | 928.4 hPa | - | - | - | - |
| 1787965013 | 16.67° C | 54% | 928.6 hPa | - | - | - | - |
| 1787964713 | 16.67° C | 54% | 928.8 hPa | - | - | - | - |
| 1787964413 | 17.22° C | 55% | 928.8 hPa | - | - | - | - |
| 1787964113 | 17.22° C | 57% | 928.4 hPa | - | - | - | - |
| 1787963813 | 17.22° C | 58% | 928.4 hPa | - | - | - | - |
| 1787963513 | 17.22° C | 59% | 928.4 hPa | - | - | - | - |
| 1787963213 | 17.22° C | 64% | 928.2 hPa | - | - | - | - |
| 1787962913 | 17.22° C | 70% | 928.2 hPa | - | - | - | - |
| 1787962613 | 18.33° C | 70% | 927.8 hPa | - | - | - | - |
| 1787962313 | 19.44° C | 68% | 927.4 hPa | - | - | - | - |
| 1787962013 | 20° C | 65% | 927 hPa | - | - | - | - |
| 1787961713 | 20.56° C | 62% | 926.9 hPa | - | - | - | - |
| 1787961413 | 20.56° C | 62% | 926.9 hPa | - | - | - | - |
| 1787961113 | 20.56° C | 62% | 926.9 hPa | - | - | - | - |
* Rain since midnight (hover to see other rain measurements)
** Current wind speed in m/s (hover to see current wind gust speed)